createdAt,value
2019-03-01T00:00:24.669Z,1005.66
2019-03-01T00:00:50.773Z,1005.68
2019-03-01T00:01:16.885Z,1005.66
2019-03-01T00:01:42.993Z,1005.65
2019-03-01T00:02:09.128Z,1005.63
2019-03-01T00:02:35.238Z,1005.63
2019-03-01T00:03:01.357Z,1005.63
2019-03-01T00:03:27.448Z,1005.64
2019-03-01T00:03:53.551Z,1005.62
2019-03-01T00:04:19.655Z,1005.63
2019-03-01T00:04:45.768Z,1005.63
2019-03-01T00:05:11.878Z,1005.61
2019-03-01T00:05:38.068Z,1005.65
2019-03-01T00:06:04.178Z,1005.64
2019-03-01T00:06:30.309Z,1005.61
2019-03-01T00:06:56.445Z,1005.61
2019-03-01T00:07:22.553Z,1005.6
2019-03-01T00:07:48.680Z,1005.67
2019-03-01T00:08:14.840Z,1005.62
2019-03-01T00:08:40.960Z,1005.63
2019-03-01T00:09:07.074Z,1005.62
2019-03-01T00:09:33.177Z,1005.63
2019-03-01T00:09:59.316Z,1005.63
2019-03-01T00:10:26.774Z,1005.63
2019-03-01T00:10:52.525Z,1005.66
2019-03-01T00:11:18.637Z,1005.63
2019-03-01T00:11:44.743Z,1005.62
2019-03-01T00:12:10.876Z,1005.68
2019-03-01T00:12:37.020Z,1005.67
2019-03-01T00:13:03.143Z,1005.6
2019-03-01T00:13:29.238Z,1005.63
2019-03-01T00:13:55.346Z,1005.61
2019-03-01T00:14:21.453Z,1005.62
2019-03-01T00:14:47.565Z,1005.65
2019-03-01T00:15:13.668Z,1005.62
2019-03-01T00:15:39.797Z,1005.63
2019-03-01T00:16:05.911Z,1005.61
2019-03-01T00:16:32.013Z,1005.61
2019-03-01T00:16:58.120Z,1005.59
2019-03-01T00:17:24.231Z,1005.6
2019-03-01T00:17:50.339Z,1005.58
2019-03-01T00:18:16.445Z,1005.64
2019-03-01T00:18:42.551Z,1005.6
2019-03-01T00:19:08.656Z,1005.6
2019-03-01T00:19:34.766Z,1005.6
2019-03-01T00:20:00.876Z,1005.62
2019-03-01T00:20:26.986Z,1005.57
2019-03-01T00:20:53.094Z,1005.58
2019-03-01T00:21:19.260Z,1005.57
2019-03-01T00:21:45.364Z,1005.61
2019-03-01T00:22:11.477Z,1005.57
2019-03-01T00:22:37.586Z,1005.57
2019-03-01T00:23:03.692Z,1005.59
2019-03-01T00:23:29.801Z,1005.56
2019-03-01T00:23:55.907Z,1005.57
2019-03-01T00:24:22.018Z,1005.59
2019-03-01T00:24:48.121Z,1005.57
2019-03-01T00:25:14.234Z,1005.54
2019-03-01T00:25:40.338Z,1005.54
2019-03-01T00:26:06.440Z,1005.54
2019-03-01T00:26:32.585Z,1005.54
2019-03-01T00:26:58.697Z,1005.5
2019-03-01T00:27:24.799Z,1005.48
2019-03-01T00:27:50.900Z,1005.51
2019-03-01T00:28:17.015Z,1005.53
2019-03-01T00:28:43.158Z,1005.52
2019-03-01T00:29:09.241Z,1005.47
2019-03-01T00:29:35.354Z,1005.47
2019-03-01T00:30:01.466Z,1005.45
2019-03-01T00:30:27.566Z,1005.47
2019-03-01T00:30:53.672Z,1005.45
2019-03-01T00:31:19.775Z,1005.44
2019-03-01T00:31:45.880Z,1005.46
2019-03-01T00:32:12.006Z,1005.46
2019-03-01T00:32:38.115Z,1005.49
2019-03-01T00:33:04.237Z,1005.41
2019-03-01T00:33:30.362Z,1005.43
2019-03-01T00:33:56.465Z,1005.42
2019-03-01T00:34:22.598Z,1005.42
2019-03-01T00:34:48.699Z,1005.39
2019-03-01T00:35:14.808Z,1005.45
2019-03-01T00:35:40.933Z,1005.41
2019-03-01T00:36:07.033Z,1005.39
2019-03-01T00:36:33.164Z,1005.41
2019-03-01T00:36:59.306Z,1005.38
2019-03-01T00:37:25.406Z,1005.41
2019-03-01T00:37:51.540Z,1005.38
2019-03-01T00:38:17.645Z,1005.4
2019-03-01T00:38:43.755Z,1005.42
2019-03-01T00:39:09.871Z,1005.42
2019-03-01T00:39:35.976Z,1005.41
2019-03-01T00:40:02.087Z,1005.38
2019-03-01T00:40:28.187Z,1005.39
2019-03-01T00:40:54.296Z,1005.42
2019-03-01T00:41:20.398Z,1005.41
2019-03-01T00:41:46.501Z,1005.42
2019-03-01T00:42:12.613Z,1005.39
2019-03-01T00:42:38.709Z,1005.41
2019-03-01T00:43:04.823Z,1005.41
2019-03-01T00:43:30.926Z,1005.38
2019-03-01T00:43:57.033Z,1005.42
2019-03-01T00:44:23.143Z,1005.37
2019-03-01T00:44:49.279Z,1005.39
2019-03-01T00:45:15.389Z,1005.33
2019-03-01T00:45:41.528Z,1005.38
2019-03-01T00:46:07.638Z,1005.38
2019-03-01T00:46:33.772Z,1005.37
2019-03-01T00:46:59.874Z,1005.32
2019-03-01T00:47:25.984Z,1005.34
2019-03-01T00:47:52.130Z,1005.32
2019-03-01T00:48:18.228Z,1005.33
2019-03-01T00:48:44.334Z,1005.32
2019-03-01T00:49:10.472Z,1005.33
2019-03-01T00:49:36.609Z,1005.29
2019-03-01T00:50:02.751Z,1005.32
2019-03-01T00:50:28.880Z,1005.29
2019-03-01T00:50:54.987Z,1005.31
2019-03-01T00:51:21.113Z,1005.27
2019-03-01T00:51:47.235Z,1005.26
2019-03-01T00:52:13.341Z,1005.23
2019-03-01T00:52:39.448Z,1005.23
2019-03-01T00:53:05.562Z,1005.24
2019-03-01T00:53:31.688Z,1005.23
2019-03-01T00:53:57.800Z,1005.25
2019-03-01T00:54:23.906Z,1005.23
2019-03-01T00:54:50.016Z,1005.24
2019-03-01T00:55:16.172Z,1005.22
2019-03-01T00:55:42.281Z,1005.23
2019-03-01T00:56:08.407Z,1005.23
2019-03-01T00:56:34.548Z,1005.23
2019-03-01T00:57:00.657Z,1005.2
2019-03-01T00:57:26.804Z,1005.24
2019-03-01T00:57:52.899Z,1005.22
2019-03-01T00:58:19.007Z,1005.23
2019-03-01T00:58:45.109Z,1005.2
2019-03-01T00:59:11.215Z,1005.19
2019-03-01T00:59:37.340Z,1005.17
2019-03-01T01:00:03.455Z,1005.21
2019-03-01T01:00:29.549Z,1005.21
2019-03-01T01:00:55.656Z,1005.15
2019-03-01T01:01:21.759Z,1005.16
2019-03-01T01:01:47.869Z,1005.18
2019-03-01T01:02:14.001Z,1005.16
2019-03-01T01:02:40.137Z,1005.22
2019-03-01T01:03:06.245Z,1005.16
2019-03-01T01:03:32.348Z,1005.15
2019-03-01T01:03:58.457Z,1005.13
2019-03-01T01:04:24.560Z,1005.15
2019-03-01T01:04:50.668Z,1005.15
2019-03-01T01:05:16.779Z,1005.14
2019-03-01T01:05:42.892Z,1005.16
2019-03-01T01:06:09.058Z,1005.14
2019-03-01T01:06:35.183Z,1005.11
2019-03-01T01:07:01.289Z,1005.13
2019-03-01T01:07:27.398Z,1005.09
2019-03-01T01:07:53.507Z,1005.06
2019-03-01T01:08:19.618Z,1005.07
2019-03-01T01:08:45.727Z,1005.09
2019-03-01T01:09:11.851Z,1005.04
2019-03-01T01:09:37.963Z,1005.08
2019-03-01T01:10:04.067Z,1005.11
2019-03-01T01:10:30.171Z,1005.09
2019-03-01T01:10:56.279Z,1005.12
2019-03-01T01:11:22.388Z,1005.04
2019-03-01T01:11:48.500Z,1005.05
2019-03-01T01:12:14.607Z,1005.07
2019-03-01T01:12:40.747Z,1005.12
2019-03-01T01:13:06.854Z,1005.08
2019-03-01T01:13:32.966Z,1005.07
2019-03-01T01:13:59.073Z,1005.06
2019-03-01T01:14:25.212Z,1005.05
2019-03-01T01:14:51.323Z,1005.09
2019-03-01T01:15:17.425Z,1005.09
2019-03-01T01:15:43.540Z,1005.04
2019-03-01T01:16:09.651Z,1005.07
2019-03-01T01:16:35.781Z,1005.04
2019-03-01T01:17:01.890Z,1005.03
2019-03-01T01:17:27.994Z,1005.04
2019-03-01T01:17:54.133Z,1005.05
2019-03-01T01:18:20.273Z,1005.03
2019-03-01T01:18:46.380Z,1005.01
2019-03-01T01:19:12.488Z,1004.99
2019-03-01T01:19:38.623Z,1004.98
2019-03-01T01:20:04.730Z,1005.02
2019-03-01T01:20:30.833Z,1004.98
2019-03-01T01:20:56.951Z,1004.99
2019-03-01T01:21:23.092Z,1004.99
2019-03-01T01:21:49.219Z,1004.97
2019-03-01T01:22:15.353Z,1004.95
2019-03-01T01:22:41.460Z,1004.96
2019-03-01T01:23:07.598Z,1004.96
2019-03-01T01:23:33.701Z,1004.98
2019-03-01T01:23:59.835Z,1004.93
2019-03-01T01:24:25.936Z,1004.93
2019-03-01T01:24:52.045Z,1004.89
2019-03-01T01:25:18.152Z,1004.92
2019-03-01T01:25:44.266Z,1004.9
2019-03-01T01:26:10.380Z,1004.91
2019-03-01T01:26:36.515Z,1004.95
2019-03-01T01:27:02.622Z,1004.91
2019-03-01T01:27:28.727Z,1004.91
2019-03-01T01:27:55.850Z,1004.93
2019-03-01T01:28:21.958Z,1004.92
2019-03-01T01:28:48.069Z,1004.94
2019-03-01T01:29:14.178Z,1004.92
2019-03-01T01:29:40.283Z,1004.96
2019-03-01T01:30:06.394Z,1004.91
2019-03-01T01:30:32.531Z,1004.92
2019-03-01T01:30:58.647Z,1004.86
2019-03-01T01:31:24.808Z,1004.91
2019-03-01T01:31:50.915Z,1004.86
2019-03-01T01:32:17.015Z,1004.88
2019-03-01T01:32:43.124Z,1004.84
2019-03-01T01:33:09.240Z,1004.87
2019-03-01T01:33:35.350Z,1004.86
2019-03-01T01:34:01.456Z,1004.87
2019-03-01T01:34:27.564Z,1004.81
2019-03-01T01:34:53.677Z,1004.83
2019-03-01T01:35:19.777Z,1004.81
2019-03-01T01:35:45.878Z,1004.84
2019-03-01T01:36:11.992Z,1004.85
2019-03-01T01:36:38.096Z,1004.78
2019-03-01T01:37:04.202Z,1004.78
2019-03-01T01:37:30.339Z,1004.78
2019-03-01T01:37:56.442Z,1004.81
2019-03-01T01:38:22.545Z,1004.76
2019-03-01T01:38:48.650Z,1004.78
2019-03-01T01:39:14.764Z,1004.79
2019-03-01T01:39:40.865Z,1004.81
2019-03-01T01:40:07.002Z,1004.81
2019-03-01T01:40:33.103Z,1004.75
2019-03-01T01:40:59.214Z,1004.74
2019-03-01T01:41:25.318Z,1004.72
2019-03-01T01:41:51.431Z,1004.8
2019-03-01T01:42:17.556Z,1004.75
2019-03-01T01:42:43.661Z,1004.79
2019-03-01T01:43:09.768Z,1004.79
2019-03-01T01:43:35.879Z,1004.77
2019-03-01T01:44:02.023Z,1004.76
2019-03-01T01:44:28.141Z,1004.76
2019-03-01T01:44:54.246Z,1004.75
2019-03-01T01:45:20.388Z,1004.73
2019-03-01T01:45:46.525Z,1004.75
2019-03-01T01:46:12.695Z,1004.73
2019-03-01T01:46:38.804Z,1004.82
2019-03-01T01:47:04.909Z,1004.71
2019-03-01T01:47:31.015Z,1004.73
2019-03-01T01:47:57.153Z,1004.65
2019-03-01T01:48:23.261Z,1004.73
2019-03-01T01:48:49.359Z,1004.68
2019-03-01T01:49:15.501Z,1004.68
2019-03-01T01:49:41.615Z,1004.68
2019-03-01T01:50:07.721Z,1004.82
2019-03-01T01:50:33.827Z,1004.66
2019-03-01T01:50:59.931Z,1004.69
2019-03-01T01:51:26.036Z,1004.67
2019-03-01T01:51:52.142Z,1004.71
2019-03-01T01:52:18.245Z,1004.74
2019-03-01T01:52:44.363Z,1004.73
2019-03-01T01:53:10.550Z,1004.64
2019-03-01T01:53:36.657Z,1004.64
2019-03-01T01:54:02.762Z,1004.64
2019-03-01T01:54:28.874Z,1004.64
2019-03-01T01:54:54.978Z,1004.63
2019-03-01T01:55:21.197Z,1004.63
2019-03-01T01:55:47.306Z,1004.65
2019-03-01T01:56:13.412Z,1004.62
2019-03-01T01:56:39.522Z,1004.63
2019-03-01T01:57:05.638Z,1004.61
2019-03-01T01:57:31.741Z,1004.6
2019-03-01T01:57:57.846Z,1004.62
2019-03-01T01:58:23.951Z,1004.59
2019-03-01T01:58:50.059Z,1004.6
2019-03-01T01:59:16.198Z,1004.6
2019-03-01T01:59:42.385Z,1004.61
2019-03-01T02:00:08.495Z,1004.66
2019-03-01T02:00:34.632Z,1004.64
2019-03-01T02:01:00.744Z,1004.65
2019-03-01T02:01:26.844Z,1004.63
2019-03-01T02:01:52.988Z,1004.65
2019-03-01T02:02:19.089Z,1004.66
2019-03-01T02:02:45.195Z,1004.59
2019-03-01T02:03:11.312Z,1004.62
2019-03-01T02:03:37.420Z,1004.57
2019-03-01T02:04:03.526Z,1004.6
2019-03-01T02:04:29.633Z,1004.59
2019-03-01T02:04:55.765Z,1004.57
2019-03-01T02:05:21.896Z,1004.58
2019-03-01T02:05:48.005Z,1004.59
2019-03-01T02:06:14.110Z,1004.59
2019-03-01T02:06:40.221Z,1004.59
2019-03-01T02:07:06.324Z,1004.57
2019-03-01T02:07:32.465Z,1004.66
2019-03-01T02:07:58.574Z,1004.6
2019-03-01T02:08:24.673Z,1004.6
2019-03-01T02:08:50.779Z,1004.6
2019-03-01T02:09:16.890Z,1004.55
2019-03-01T02:09:43.029Z,1004.53
2019-03-01T02:10:09.139Z,1004.57
2019-03-01T02:10:35.248Z,1004.58
2019-03-01T02:11:01.356Z,1004.59
2019-03-01T02:11:27.466Z,1004.57
2019-03-01T02:11:53.604Z,1004.57
2019-03-01T02:12:19.707Z,1004.58
2019-03-01T02:12:45.822Z,1004.61
2019-03-01T02:13:11.955Z,1004.57
2019-03-01T02:13:38.089Z,1004.55
2019-03-01T02:14:04.171Z,1004.58
2019-03-01T02:14:30.277Z,1004.6
2019-03-01T02:14:56.386Z,1004.59
2019-03-01T02:15:22.517Z,1004.58
2019-03-01T02:15:48.620Z,1004.62
2019-03-01T02:16:14.733Z,1004.54
2019-03-01T02:16:40.870Z,1004.55
2019-03-01T02:17:06.974Z,1004.51
2019-03-01T02:17:33.078Z,1004.55
2019-03-01T02:17:59.201Z,1004.58
2019-03-01T02:18:25.328Z,1004.52
2019-03-01T02:18:57.632Z,1004.53
2019-03-01T02:19:19.019Z,1004.51
2019-03-01T02:19:45.155Z,1004.51
2019-03-01T02:20:11.273Z,1004.49
2019-03-01T02:20:37.370Z,1004.49
2019-03-01T02:21:03.485Z,1004.49
2019-03-01T02:21:29.590Z,1004.5
2019-03-01T02:21:55.728Z,1004.42
2019-03-01T02:22:21.825Z,1004.49
2019-03-01T02:22:47.964Z,1004.46
2019-03-01T02:23:14.096Z,1004.49
2019-03-01T02:23:40.272Z,1004.46
2019-03-01T02:24:06.343Z,1004.45
2019-03-01T02:24:32.505Z,1004.45
2019-03-01T02:24:58.608Z,1004.47
2019-03-01T02:25:24.748Z,1004.47
2019-03-01T02:25:50.882Z,1004.47
2019-03-01T02:26:16.983Z,1004.44
2019-03-01T02:26:43.089Z,1004.48
2019-03-01T02:27:09.187Z,1004.46
2019-03-01T02:27:35.296Z,1004.5
2019-03-01T02:28:01.400Z,1004.46
2019-03-01T02:28:27.514Z,1004.46
2019-03-01T02:28:53.645Z,1004.46
2019-03-01T02:29:19.754Z,1004.48
2019-03-01T02:29:45.894Z,1004.44
2019-03-01T02:30:12.053Z,1004.42
2019-03-01T02:30:38.205Z,1004.44
2019-03-01T02:31:04.321Z,1004.46
2019-03-01T02:31:30.504Z,1004.43
2019-03-01T02:31:56.640Z,1004.44
2019-03-01T02:32:22.812Z,1004.45
2019-03-01T02:32:48.949Z,1004.46
2019-03-01T02:33:15.056Z,1004.44
2019-03-01T02:33:41.224Z,1004.39
2019-03-01T02:34:07.322Z,1004.38
2019-03-01T02:34:33.432Z,1004.41
2019-03-01T02:34:59.549Z,1004.43
2019-03-01T02:35:25.667Z,1004.42
2019-03-01T02:35:51.821Z,1004.43
2019-03-01T02:36:17.915Z,1004.42
2019-03-01T02:36:44.056Z,1004.43
2019-03-01T02:37:10.165Z,1004.42
2019-03-01T02:37:36.320Z,1004.4
2019-03-01T02:38:02.461Z,1004.4
2019-03-01T02:38:28.581Z,1004.4
2019-03-01T02:38:54.692Z,1004.38
2019-03-01T02:39:20.800Z,1004.42
2019-03-01T02:39:46.908Z,1004.4
2019-03-01T02:40:13.012Z,1004.42
2019-03-01T02:40:39.146Z,1004.38
2019-03-01T02:41:05.254Z,1004.39
2019-03-01T02:41:31.369Z,1004.41
2019-03-01T02:41:57.531Z,1004.4
2019-03-01T02:42:23.645Z,1004.41
2019-03-01T02:42:49.799Z,1004.33
2019-03-01T02:43:15.940Z,1004.36
2019-03-01T02:43:42.045Z,1004.38
2019-03-01T02:44:08.149Z,1004.37
2019-03-01T02:44:34.288Z,1004.38
2019-03-01T02:45:00.424Z,1004.34
2019-03-01T02:45:26.637Z,1004.32
2019-03-01T02:45:52.803Z,1004.35
2019-03-01T02:46:18.998Z,1004.33
2019-03-01T02:46:45.103Z,1004.34
2019-03-01T02:47:11.218Z,1004.39
2019-03-01T02:47:37.349Z,1004.37
2019-03-01T02:48:03.490Z,1004.32
2019-03-01T02:48:29.590Z,1004.31
2019-03-01T02:48:55.725Z,1004.29
2019-03-01T02:49:21.892Z,1004.3
2019-03-01T02:49:48.029Z,1004.3
2019-03-01T02:50:14.185Z,1004.29
2019-03-01T02:50:40.347Z,1004.27
2019-03-01T02:51:06.461Z,1004.3
2019-03-01T02:51:32.620Z,1004.27
2019-03-01T02:51:58.755Z,1004.29
2019-03-01T02:52:24.884Z,1004.23
2019-03-01T02:52:50.984Z,1004.28
2019-03-01T02:53:17.120Z,1004.29
2019-03-01T02:53:43.224Z,1004.25
2019-03-01T02:54:09.329Z,1004.24
2019-03-01T02:54:35.467Z,1004.19
2019-03-01T02:55:01.621Z,1004.22
2019-03-01T02:55:27.789Z,1004.26
2019-03-01T02:55:53.904Z,1004.24
2019-03-01T02:56:20.167Z,1004.24
2019-03-01T02:56:46.284Z,1004.23
2019-03-01T02:57:12.390Z,1004.26
2019-03-01T02:57:38.502Z,1004.23
2019-03-01T02:58:04.638Z,1004.24
2019-03-01T02:58:30.744Z,1004.26
2019-03-01T02:58:56.880Z,1004.22
2019-03-01T02:59:22.987Z,1004.25
2019-03-01T02:59:49.094Z,1004.29
2019-03-01T03:00:15.204Z,1004.29
2019-03-01T03:00:41.311Z,1004.24
2019-03-01T03:01:07.421Z,1004.21
2019-03-01T03:01:33.552Z,1004.28
2019-03-01T03:01:59.685Z,1004.25
2019-03-01T03:02:25.837Z,1004.27
2019-03-01T03:02:52.050Z,1004.24
2019-03-01T03:03:18.184Z,1004.29
2019-03-01T03:03:44.303Z,1004.27
2019-03-01T03:04:10.427Z,1004.24
2019-03-01T03:04:36.561Z,1004.26
2019-03-01T03:05:02.698Z,1004.25
2019-03-01T03:05:28.833Z,1004.25
2019-03-01T03:05:55.003Z,1004.28
2019-03-01T03:06:21.212Z,1004.29
2019-03-01T03:06:47.370Z,1004.28
2019-03-01T03:07:13.538Z,1004.31
2019-03-01T03:07:39.634Z,1004.26
2019-03-01T03:08:05.764Z,1004.23
2019-03-01T03:08:31.868Z,1004.31
2019-03-01T03:08:57.973Z,1004.31
2019-03-01T03:09:24.114Z,1004.28
2019-03-01T03:09:50.249Z,1004.27
2019-03-01T03:10:16.380Z,1004.3
2019-03-01T03:10:42.514Z,1004.29
2019-03-01T03:11:08.629Z,1004.32
2019-03-01T03:11:34.758Z,1004.29
2019-03-01T03:12:00.909Z,1004.26
2019-03-01T03:12:27.068Z,1004.31
2019-03-01T03:12:53.199Z,1004.3
2019-03-01T03:13:19.386Z,1004.27
2019-03-01T03:13:45.495Z,1004.31
2019-03-01T03:14:11.635Z,1004.29
2019-03-01T03:14:37.736Z,1004.3
2019-03-01T03:15:03.867Z,1004.3
2019-03-01T03:15:29.972Z,1004.34
2019-03-01T03:15:56.077Z,1004.33
2019-03-01T03:16:22.187Z,1004.32
2019-03-01T03:16:48.320Z,1004.32
2019-03-01T03:17:14.467Z,1004.29
2019-03-01T03:17:40.572Z,1004.32
2019-03-01T03:18:06.710Z,1004.33
2019-03-01T03:18:32.812Z,1004.33
2019-03-01T03:18:58.916Z,1004.32
2019-03-01T03:19:25.045Z,1004.32
2019-03-01T03:19:51.178Z,1004.3
2019-03-01T03:20:17.313Z,1004.31
2019-03-01T03:20:43.479Z,1004.33
2019-03-01T03:21:09.589Z,1004.29
2019-03-01T03:21:35.722Z,1004.29
2019-03-01T03:22:01.849Z,1004.33
2019-03-01T03:22:28.022Z,1004.35
2019-03-01T03:22:54.137Z,1004.34
2019-03-01T03:23:20.281Z,1004.29
2019-03-01T03:23:46.447Z,1004.29
2019-03-01T03:24:12.600Z,1004.29
2019-03-01T03:24:38.705Z,1004.3
2019-03-01T03:25:04.811Z,1004.26
2019-03-01T03:25:30.915Z,1004.28
2019-03-01T03:25:57.032Z,1004.27
2019-03-01T03:26:23.205Z,1004.29
2019-03-01T03:26:49.321Z,1004.25
2019-03-01T03:27:15.431Z,1004.28
2019-03-01T03:27:41.562Z,1004.29
2019-03-01T03:28:07.719Z,1004.29
2019-03-01T03:28:33.870Z,1004.26
2019-03-01T03:29:00.020Z,1004.26
2019-03-01T03:29:26.108Z,1004.27
2019-03-01T03:29:52.241Z,1004.24
2019-03-01T03:30:18.393Z,1004.26
2019-03-01T03:30:44.524Z,1004.28
2019-03-01T03:31:10.653Z,1004.26
2019-03-01T03:31:36.796Z,1004.26
2019-03-01T03:32:02.926Z,1004.23
2019-03-01T03:32:29.071Z,1004.23
2019-03-01T03:32:55.236Z,1004.23
2019-03-01T03:33:21.425Z,1004.23
2019-03-01T03:33:47.559Z,1004.25
2019-03-01T03:34:13.702Z,1004.21
2019-03-01T03:34:39.828Z,1004.26
2019-03-01T03:35:05.940Z,1004.22
2019-03-01T03:35:32.076Z,1004.22
2019-03-01T03:35:58.205Z,1004.24
2019-03-01T03:36:24.408Z,1004.2
2019-03-01T03:36:50.536Z,1004.25
2019-03-01T03:37:16.705Z,1004.23
2019-03-01T03:37:42.861Z,1004.23
2019-03-01T03:38:09.001Z,1004.22
2019-03-01T03:38:35.140Z,1004.24
2019-03-01T03:39:01.279Z,1004.24
2019-03-01T03:39:27.413Z,1004.29
2019-03-01T03:39:53.519Z,1004.22
2019-03-01T03:40:19.628Z,1004.22
2019-03-01T03:40:45.731Z,1004.24
2019-03-01T03:41:11.860Z,1004.22
2019-03-01T03:41:37.968Z,1004.24
2019-03-01T03:42:04.078Z,1004.22
2019-03-01T03:42:30.175Z,1004.24
2019-03-01T03:42:56.332Z,1004.22
2019-03-01T03:43:22.884Z,1004.21
2019-03-01T03:43:49.048Z,1004.23
2019-03-01T03:44:15.162Z,1004.22
2019-03-01T03:44:41.298Z,1004.23
2019-03-01T03:45:07.432Z,1004.22
2019-03-01T03:45:33.573Z,1004.24
2019-03-01T03:45:59.682Z,1004.22
2019-03-01T03:46:25.786Z,1004.27
2019-03-01T03:46:51.896Z,1004.24
2019-03-01T03:47:18.058Z,1004.25
2019-03-01T03:47:44.185Z,1004.24
2019-03-01T03:48:10.333Z,1004.25
2019-03-01T03:48:36.682Z,1004.23
2019-03-01T03:49:02.782Z,1004.22
2019-03-01T03:49:28.915Z,1004.23
2019-03-01T03:49:55.011Z,1004.22
2019-03-01T03:50:21.414Z,1004.21
2019-03-01T03:50:47.526Z,1004.21
2019-03-01T03:51:13.662Z,1004.2
2019-03-01T03:51:39.765Z,1004.19
2019-03-01T03:52:05.892Z,1004.21
2019-03-01T03:52:32.051Z,1004.21
2019-03-01T03:52:58.174Z,1004.2
2019-03-01T03:53:24.247Z,1004.19
2019-03-01T03:53:50.388Z,1004.22
2019-03-01T03:54:16.490Z,1004.21
2019-03-01T03:54:42.604Z,1004.18
2019-03-01T03:55:08.767Z,1004.21
2019-03-01T03:55:34.873Z,1004.22
2019-03-01T03:56:00.991Z,1004.18
2019-03-01T03:56:27.109Z,1004.18
2019-03-01T03:56:53.273Z,1004.16
2019-03-01T03:57:19.449Z,1004.16
2019-03-01T03:57:45.600Z,1004.17
2019-03-01T03:58:11.702Z,1004.15
2019-03-01T03:58:37.820Z,1004.16
2019-03-01T03:59:03.947Z,1004.18
2019-03-01T03:59:30.086Z,1004.18
2019-03-01T03:59:56.233Z,1004.16
2019-03-01T04:00:22.393Z,1004.15
2019-03-01T04:00:48.499Z,1004.16
2019-03-01T04:01:14.637Z,1004.18
2019-03-01T04:01:40.743Z,1004.22
2019-03-01T04:02:06.850Z,1004.18
2019-03-01T04:02:32.995Z,1004.18
2019-03-01T04:02:59.101Z,1004.19
2019-03-01T04:03:25.251Z,1004.17
2019-03-01T04:03:51.382Z,1004.16
2019-03-01T04:04:17.499Z,1004.2
2019-03-01T04:04:43.597Z,1004.21
2019-03-01T04:05:09.739Z,1004.16
2019-03-01T04:05:35.848Z,1004.17
2019-03-01T04:06:01.991Z,1004.15
2019-03-01T04:06:28.120Z,1004.13
2019-03-01T04:06:54.266Z,1004.15
2019-03-01T04:07:20.369Z,1004.2
2019-03-01T04:07:46.509Z,1004.17
2019-03-01T04:08:12.620Z,1004.16
2019-03-01T04:08:38.722Z,1004.14
2019-03-01T04:09:04.836Z,1004.18
2019-03-01T04:09:30.961Z,1004.15
2019-03-01T04:09:57.076Z,1004.18
2019-03-01T04:10:23.179Z,1004.16
2019-03-01T04:10:49.293Z,1004.14
2019-03-01T04:11:15.426Z,1004.17
2019-03-01T04:11:41.537Z,1004.15
2019-03-01T04:12:07.642Z,1004.11
2019-03-01T04:12:33.783Z,1004.12
2019-03-01T04:12:59.939Z,1004.1
2019-03-01T04:13:27.046Z,1004.12
2019-03-01T04:13:53.153Z,1004.12
2019-03-01T04:14:19.296Z,1004.1
2019-03-01T04:14:45.427Z,1004.11
2019-03-01T04:15:11.654Z,1004.09
2019-03-01T04:15:37.789Z,1004.12
2019-03-01T04:16:03.899Z,1004.13
2019-03-01T04:16:30.009Z,1004.12
2019-03-01T04:16:56.145Z,1004.11
2019-03-01T04:17:22.285Z,1004.1
2019-03-01T04:17:48.394Z,1004.12
2019-03-01T04:18:14.523Z,1004.14
2019-03-01T04:18:40.654Z,1004.13
2019-03-01T04:19:06.867Z,1004.13
2019-03-01T04:19:33.030Z,1004.17
2019-03-01T04:19:59.140Z,1004.16
2019-03-01T04:20:25.272Z,1004.15
2019-03-01T04:20:51.434Z,1004.13
2019-03-01T04:21:17.539Z,1004.14
2019-03-01T04:21:43.645Z,1004.14
2019-03-01T04:22:09.747Z,1004.09
2019-03-01T04:22:35.914Z,1004.13
2019-03-01T04:23:02.024Z,1004.13
2019-03-01T04:23:28.150Z,1004.13
2019-03-01T04:23:54.310Z,1004.13
2019-03-01T04:24:20.411Z,1004.14
2019-03-01T04:24:46.549Z,1004.13
2019-03-01T04:25:12.716Z,1004.14
2019-03-01T04:25:38.856Z,1004.16
2019-03-01T04:26:04.991Z,1004.12
2019-03-01T04:26:31.094Z,1004.15
2019-03-01T04:26:57.203Z,1004.14
2019-03-01T04:27:23.305Z,1004.11
2019-03-01T04:27:49.414Z,1004.16
2019-03-01T04:28:15.517Z,1004.16
2019-03-01T04:28:41.653Z,1004.17
2019-03-01T04:29:07.763Z,1004.13
2019-03-01T04:29:33.869Z,1004.15
2019-03-01T04:30:00.010Z,1004.14
2019-03-01T04:30:26.112Z,1004.13
2019-03-01T04:30:52.218Z,1004.1
2019-03-01T04:31:18.314Z,1004.15
2019-03-01T04:31:44.483Z,1004.13
2019-03-01T04:32:10.669Z,1004.12
2019-03-01T04:32:36.771Z,1004.16
2019-03-01T04:33:02.905Z,1004.16
2019-03-01T04:33:29.033Z,1004.17
2019-03-01T04:33:55.165Z,1004.14
2019-03-01T04:34:21.812Z,1004.15
2019-03-01T04:34:47.947Z,1004.16
2019-03-01T04:35:14.085Z,1004.16
2019-03-01T04:35:40.247Z,1004.18
2019-03-01T04:36:06.374Z,1004.18
2019-03-01T04:36:32.513Z,1004.16
2019-03-01T04:36:58.653Z,1004.15
2019-03-01T04:37:24.759Z,1004.19
2019-03-01T04:37:50.864Z,1004.16
2019-03-01T04:38:16.966Z,1004.2
2019-03-01T04:38:43.066Z,1004.15
2019-03-01T04:39:09.233Z,1004.17
2019-03-01T04:39:35.365Z,1004.17
2019-03-01T04:40:01.502Z,1004.14
2019-03-01T04:40:27.636Z,1004.12
2019-03-01T04:40:53.744Z,1004.15
2019-03-01T04:41:19.852Z,1004.13
2019-03-01T04:41:45.951Z,1004.13
2019-03-01T04:42:12.062Z,1004.11
2019-03-01T04:42:38.176Z,1004.1
2019-03-01T04:43:04.340Z,1004.08
2019-03-01T04:43:30.443Z,1004.09
2019-03-01T04:43:56.574Z,1004.04
2019-03-01T04:44:22.709Z,1004.08
2019-03-01T04:44:48.842Z,1004.04
2019-03-01T04:45:14.979Z,1004.1
2019-03-01T04:45:41.083Z,1004.06
2019-03-01T04:46:07.213Z,1004.07
2019-03-01T04:46:33.347Z,1004.05
2019-03-01T04:46:59.492Z,1004.07
2019-03-01T04:47:25.608Z,1004.04
2019-03-01T04:47:51.716Z,1004.02
2019-03-01T04:48:17.825Z,1004.04
2019-03-01T04:48:43.934Z,1004.02
2019-03-01T04:49:10.034Z,1004
2019-03-01T04:49:36.143Z,1003.99
2019-03-01T04:50:02.251Z,1003.98
2019-03-01T04:50:28.357Z,1003.97
2019-03-01T04:50:54.492Z,1003.94
2019-03-01T04:51:20.626Z,1003.93
2019-03-01T04:51:48.711Z,1003.93
2019-03-01T04:52:14.820Z,1003.94
2019-03-01T04:52:40.933Z,1003.91
2019-03-01T04:53:07.065Z,1003.92
2019-03-01T04:53:33.168Z,1003.91
2019-03-01T04:53:59.274Z,1003.96
2019-03-01T04:54:25.381Z,1003.95
2019-03-01T04:54:51.518Z,1003.93
2019-03-01T04:55:17.623Z,1003.96
2019-03-01T04:55:43.735Z,1003.97
2019-03-01T04:56:09.862Z,1003.99
2019-03-01T04:56:36.960Z,1004.01
2019-03-01T04:57:03.064Z,1004
2019-03-01T04:57:29.175Z,1004.01
2019-03-01T04:57:55.276Z,1004.03
2019-03-01T04:58:21.387Z,1003.99
2019-03-01T04:58:47.539Z,1004.04
2019-03-01T04:59:13.652Z,1004.05
2019-03-01T04:59:39.781Z,1004.01
2019-03-01T05:00:05.894Z,1004.01
2019-03-01T05:00:31.997Z,1004.04
2019-03-01T05:00:58.108Z,1004.02
2019-03-01T05:01:24.247Z,1004.04
2019-03-01T05:01:50.354Z,1004.07
2019-03-01T05:02:16.464Z,1004.06
2019-03-01T05:02:42.610Z,1004.05
2019-03-01T05:03:08.717Z,1004.05
2019-03-01T05:03:34.827Z,1004.09
2019-03-01T05:04:00.941Z,1004.08
2019-03-01T05:04:27.063Z,1004.08
2019-03-01T05:04:53.170Z,1004.07
2019-03-01T05:05:19.272Z,1004.07
2019-03-01T05:05:45.385Z,1004.08
2019-03-01T05:06:11.516Z,1004.1
2019-03-01T05:06:37.630Z,1004.1
2019-03-01T05:07:03.757Z,1004.11
2019-03-01T05:07:29.866Z,1004.13
2019-03-01T05:07:55.974Z,1004.14
2019-03-01T05:08:22.080Z,1004.14
2019-03-01T05:08:48.195Z,1004.12
2019-03-01T05:09:14.350Z,1004.1
2019-03-01T05:09:40.491Z,1004.11
2019-03-01T05:10:06.591Z,1004.15
2019-03-01T05:10:32.730Z,1004.15
2019-03-01T05:10:58.862Z,1004.12
2019-03-01T05:11:24.966Z,1004.15
2019-03-01T05:11:51.074Z,1004.17
2019-03-01T05:12:17.180Z,1004.17
2019-03-01T05:12:43.294Z,1004.17
2019-03-01T05:13:09.397Z,1004.2
2019-03-01T05:13:35.501Z,1004.19
2019-03-01T05:14:01.613Z,1004.2
2019-03-01T05:14:27.721Z,1004.18
2019-03-01T05:14:53.825Z,1004.18
2019-03-01T05:15:19.971Z,1004.17
2019-03-01T05:15:46.103Z,1004.17
2019-03-01T05:16:12.237Z,1004.18
2019-03-01T05:16:38.402Z,1004.19
2019-03-01T05:17:04.503Z,1004.15